sensor_id;sensor_type;location;lat;lon;timestamp;P1;durP1;ratioP1;P2;durP2;ratioP2
18752;SDS011;9505;50.882;5.350;2023-05-07T00:00:26;46.55;;;11.38;;
18752;SDS011;9505;50.882;5.350;2023-05-07T00:02:52;49.10;;;12.13;;
18752;SDS011;9505;50.882;5.350;2023-05-07T00:05:17;44.15;;;10.82;;
18752;SDS011;9505;50.882;5.350;2023-05-07T00:07:43;46.70;;;11.48;;
18752;SDS011;9505;50.882;5.350;2023-05-07T00:10:10;40.22;;;10.88;;
18752;SDS011;9505;50.882;5.350;2023-05-07T00:12:37;46.58;;;10.77;;
18752;SDS011;9505;50.882;5.350;2023-05-07T00:15:03;40.75;;;10.73;;
18752;SDS011;9505;50.882;5.350;2023-05-07T00:17:30;46.97;;;11.95;;
18752;SDS011;9505;50.882;5.350;2023-05-07T00:19:56;48.10;;;12.35;;
18752;SDS011;9505;50.882;5.350;2023-05-07T00:22:22;57.28;;;12.50;;
18752;SDS011;9505;50.882;5.350;2023-05-07T00:24:47;38.15;;;10.40;;
18752;SDS011;9505;50.882;5.350;2023-05-07T00:27:13;46.00;;;11.23;;
18752;SDS011;9505;50.882;5.350;2023-05-07T00:29:39;49.38;;;11.40;;
18752;SDS011;9505;50.882;5.350;2023-05-07T00:32:04;39.55;;;10.65;;
18752;SDS011;9505;50.882;5.350;2023-05-07T00:34:30;48.72;;;11.23;;
18752;SDS011;9505;50.882;5.350;2023-05-07T00:36:56;40.30;;;11.27;;
18752;SDS011;9505;50.882;5.350;2023-05-07T00:39:21;42.17;;;10.98;;
18752;SDS011;9505;50.882;5.350;2023-05-07T00:41:47;40.58;;;10.43;;
18752;SDS011;9505;50.882;5.350;2023-05-07T00:44:13;48.95;;;11.45;;
18752;SDS011;9505;50.882;5.350;2023-05-07T00:46:39;40.25;;;10.32;;
18752;SDS011;9505;50.882;5.350;2023-05-07T00:49:05;44.10;;;11.13;;
18752;SDS011;9505;50.882;5.350;2023-05-07T00:51:32;48.25;;;11.77;;
18752;SDS011;9505;50.882;5.350;2023-05-07T00:53:59;48.45;;;11.43;;
18752;SDS011;9505;50.882;5.350;2023-05-07T00:56:26;39.78;;;10.52;;
18752;SDS011;9505;50.882;5.350;2023-05-07T00:58:52;43.90;;;11.30;;
18752;SDS011;9505;50.882;5.350;2023-05-07T01:01:17;38.95;;;10.02;;
18752;SDS011;9505;50.882;5.350;2023-05-07T01:03:43;43.28;;;10.90;;
18752;SDS011;9505;50.882;5.350;2023-05-07T01:06:09;45.60;;;11.77;;
18752;SDS011;9505;50.882;5.350;2023-05-07T01:08:37;47.83;;;11.85;;
18752;SDS011;9505;50.882;5.350;2023-05-07T01:11:05;36.40;;;10.52;;
18752;SDS011;9505;50.882;5.350;2023-05-07T01:13:32;47.28;;;11.18;;
18752;SDS011;9505;50.882;5.350;2023-05-07T01:15:58;42.75;;;10.48;;
18752;SDS011;9505;50.882;5.350;2023-05-07T01:18:24;40.55;;;11.10;;
18752;SDS011;9505;50.882;5.350;2023-05-07T01:20:51;42.67;;;10.80;;
18752;SDS011;9505;50.882;5.350;2023-05-07T01:23:17;45.28;;;11.43;;
18752;SDS011;9505;50.882;5.350;2023-05-07T01:25:43;50.38;;;12.85;;
18752;SDS011;9505;50.882;5.350;2023-05-07T01:28:15;50.97;;;13.43;;
18752;SDS011;9505;50.882;5.350;2023-05-07T01:30:41;48.60;;;11.95;;
18752;SDS011;9505;50.882;5.350;2023-05-07T01:33:11;41.60;;;11.32;;
18752;SDS011;9505;50.882;5.350;2023-05-07T01:35:41;44.67;;;10.95;;
18752;SDS011;9505;50.882;5.350;2023-05-07T01:38:12;35.90;;;9.43;;
18752;SDS011;9505;50.882;5.350;2023-05-07T01:40:38;44.15;;;11.48;;
18752;SDS011;9505;50.882;5.350;2023-05-07T01:43:04;43.97;;;10.63;;
18752;SDS011;9505;50.882;5.350;2023-05-07T01:45:30;48.25;;;11.77;;
18752;SDS011;9505;50.882;5.350;2023-05-07T01:47:57;36.78;;;10.45;;
18752;SDS011;9505;50.882;5.350;2023-05-07T01:50:24;43.38;;;10.52;;
18752;SDS011;9505;50.882;5.350;2023-05-07T01:52:51;41.17;;;10.60;;
18752;SDS011;9505;50.882;5.350;2023-05-07T01:55:17;47.67;;;11.00;;
18752;SDS011;9505;50.882;5.350;2023-05-07T01:57:43;48.53;;;11.77;;
18752;SDS011;9505;50.882;5.350;2023-05-07T02:00:09;43.65;;;11.20;;
18752;SDS011;9505;50.882;5.350;2023-05-07T02:02:35;49.08;;;11.77;;
18752;SDS011;9505;50.882;5.350;2023-05-07T02:05:01;48.95;;;12.27;;
18752;SDS011;9505;50.882;5.350;2023-05-07T02:07:27;44.05;;;11.50;;
18752;SDS011;9505;50.882;5.350;2023-05-07T02:09:53;46.92;;;12.25;;
18752;SDS011;9505;50.882;5.350;2023-05-07T02:12:20;40.25;;;10.70;;
18752;SDS011;9505;50.882;5.350;2023-05-07T02:14:46;47.47;;;12.13;;
18752;SDS011;9505;50.882;5.350;2023-05-07T02:17:12;46.08;;;12.18;;
18752;SDS011;9505;50.882;5.350;2023-05-07T02:19:37;53.47;;;13.93;;
18752;SDS011;9505;50.882;5.350;2023-05-07T02:22:03;49.50;;;13.50;;
18752;SDS011;9505;50.882;5.350;2023-05-07T02:24:28;45.03;;;12.45;;
18752;SDS011;9505;50.882;5.350;2023-05-07T02:26:55;48.42;;;12.80;;
18752;SDS011;9505;50.882;5.350;2023-05-07T02:29:20;44.25;;;12.43;;
18752;SDS011;9505;50.882;5.350;2023-05-07T02:31:46;41.28;;;10.90;;
18752;SDS011;9505;50.882;5.350;2023-05-07T02:34:15;48.35;;;12.38;;
18752;SDS011;9505;50.882;5.350;2023-05-07T02:36:41;65.78;;;14.32;;
18752;SDS011;9505;50.882;5.350;2023-05-07T02:39:07;48.22;;;13.13;;
18752;SDS011;9505;50.882;5.350;2023-05-07T02:41:33;51.05;;;13.27;;
18752;SDS011;9505;50.882;5.350;2023-05-07T02:43:59;59.22;;;12.77;;
18752;SDS011;9505;50.882;5.350;2023-05-07T02:46:25;46.30;;;12.00;;
18752;SDS011;9505;50.882;5.350;2023-05-07T02:48:50;50.47;;;12.20;;
18752;SDS011;9505;50.882;5.350;2023-05-07T02:51:19;45.92;;;12.55;;
18752;SDS011;9505;50.882;5.350;2023-05-07T02:53:46;40.72;;;11.88;;
18752;SDS011;9505;50.882;5.350;2023-05-07T02:56:12;40.80;;;12.02;;
18752;SDS011;9505;50.882;5.350;2023-05-07T02:58:38;50.33;;;12.20;;
18752;SDS011;9505;50.882;5.350;2023-05-07T03:01:09;51.03;;;13.57;;
18752;SDS011;9505;50.882;5.350;2023-05-07T03:03:35;52.00;;;13.75;;
18752;SDS011;9505;50.882;5.350;2023-05-07T03:06:01;46.53;;;13.00;;
18752;SDS011;9505;50.882;5.350;2023-05-07T03:08:27;49.55;;;12.60;;
18752;SDS011;9505;50.882;5.350;2023-05-07T03:10:53;52.17;;;12.73;;
18752;SDS011;9505;50.882;5.350;2023-05-07T03:13:18;50.47;;;12.85;;
18752;SDS011;9505;50.882;5.350;2023-05-07T03:15:44;47.53;;;12.20;;
18752;SDS011;9505;50.882;5.350;2023-05-07T03:18:10;48.42;;;12.95;;
18752;SDS011;9505;50.882;5.350;2023-05-07T03:20:36;51.10;;;12.75;;
18752;SDS011;9505;50.882;5.350;2023-05-07T03:23:01;47.92;;;12.40;;
18752;SDS011;9505;50.882;5.350;2023-05-07T03:25:27;54.53;;;13.75;;
18752;SDS011;9505;50.882;5.350;2023-05-07T03:27:55;47.97;;;11.52;;
18752;SDS011;9505;50.882;5.350;2023-05-07T03:30:21;45.25;;;12.20;;
18752;SDS011;9505;50.882;5.350;2023-05-07T03:32:47;53.00;;;13.00;;
18752;SDS011;9505;50.882;5.350;2023-05-07T03:35:13;49.53;;;13.27;;
18752;SDS011;9505;50.882;5.350;2023-05-07T03:37:39;43.70;;;12.10;;
18752;SDS011;9505;50.882;5.350;2023-05-07T03:40:05;55.55;;;13.52;;
18752;SDS011;9505;50.882;5.350;2023-05-07T03:42:32;53.38;;;13.57;;
18752;SDS011;9505;50.882;5.350;2023-05-07T03:44:58;44.08;;;12.95;;
18752;SDS011;9505;50.882;5.350;2023-05-07T03:47:24;46.55;;;13.85;;
18752;SDS011;9505;50.882;5.350;2023-05-07T03:49:50;50.58;;;14.05;;
18752;SDS011;9505;50.882;5.350;2023-05-07T03:52:17;52.38;;;14.18;;
18752;SDS011;9505;50.882;5.350;2023-05-07T03:54:47;53.53;;;14.02;;
18752;SDS011;9505;50.882;5.350;2023-05-07T03:57:13;42.55;;;12.02;;
18752;SDS011;9505;50.882;5.350;2023-05-07T03:59:39;43.53;;;12.60;;
18752;SDS011;9505;50.882;5.350;2023-05-07T04:02:04;50.25;;;14.38;;
18752;SDS011;9505;50.882;5.350;2023-05-07T04:04:30;47.70;;;13.18;;
18752;SDS011;9505;50.882;5.350;2023-05-07T04:06:57;54.60;;;13.77;;
18752;SDS011;9505;50.882;5.350;2023-05-07T04:09:24;47.03;;;12.50;;
18752;SDS011;9505;50.882;5.350;2023-05-07T04:11:50;54.78;;;13.32;;
18752;SDS011;9505;50.882;5.350;2023-05-07T04:14:16;45.47;;;12.45;;
18752;SDS011;9505;50.882;5.350;2023-05-07T04:16:41;53.83;;;13.38;;
18752;SDS011;9505;50.882;5.350;2023-05-07T04:19:07;50.92;;;13.82;;
18752;SDS011;9505;50.882;5.350;2023-05-07T04:21:32;44.65;;;13.32;;
18752;SDS011;9505;50.882;5.350;2023-05-07T04:23:58;48.17;;;13.18;;
18752;SDS011;9505;50.882;5.350;2023-05-07T04:26:24;44.20;;;13.40;;
18752;SDS011;9505;50.882;5.350;2023-05-07T04:28:49;51.72;;;14.18;;
18752;SDS011;9505;50.882;5.350;2023-05-07T04:31:15;50.97;;;13.18;;
18752;SDS011;9505;50.882;5.350;2023-05-07T04:33:41;53.75;;;14.65;;
18752;SDS011;9505;50.882;5.350;2023-05-07T04:36:07;43.45;;;13.32;;
18752;SDS011;9505;50.882;5.350;2023-05-07T04:38:33;49.38;;;13.63;;
18752;SDS011;9505;50.882;5.350;2023-05-07T04:41:05;50.22;;;12.93;;
18752;SDS011;9505;50.882;5.350;2023-05-07T04:43:31;45.03;;;12.50;;
18752;SDS011;9505;50.882;5.350;2023-05-07T04:45:57;58.17;;;14.45;;
18752;SDS011;9505;50.882;5.350;2023-05-07T04:48:23;51.17;;;13.95;;
18752;SDS011;9505;50.882;5.350;2023-05-07T04:50:50;53.70;;;13.88;;
18752;SDS011;9505;50.882;5.350;2023-05-07T04:53:16;50.75;;;13.55;;
18752;SDS011;9505;50.882;5.350;2023-05-07T04:55:42;50.20;;;14.10;;
18752;SDS011;9505;50.882;5.350;2023-05-07T04:58:08;49.47;;;14.50;;
18752;SDS011;9505;50.882;5.350;2023-05-07T05:00:34;48.85;;;14.13;;
18752;SDS011;9505;50.882;5.350;2023-05-07T05:03:00;48.58;;;13.95;;
18752;SDS011;9505;50.882;5.350;2023-05-07T05:05:25;52.05;;;13.50;;
18752;SDS011;9505;50.882;5.350;2023-05-07T05:07:51;51.15;;;14.60;;
18752;SDS011;9505;50.882;5.350;2023-05-07T05:10:17;52.15;;;13.60;;
18752;SDS011;9505;50.882;5.350;2023-05-07T05:12:43;53.83;;;16.17;;
18752;SDS011;9505;50.882;5.350;2023-05-07T05:15:11;54.78;;;14.85;;
18752;SDS011;9505;50.882;5.350;2023-05-07T05:17:37;51.90;;;15.23;;
18752;SDS011;9505;50.882;5.350;2023-05-07T05:20:03;57.08;;;15.98;;
18752;SDS011;9505;50.882;5.350;2023-05-07T05:22:31;58.28;;;14.52;;
18752;SDS011;9505;50.882;5.350;2023-05-07T05:24:57;48.30;;;13.45;;
18752;SDS011;9505;50.882;5.350;2023-05-07T05:27:23;43.95;;;13.82;;
18752;SDS011;9505;50.882;5.350;2023-05-07T05:29:48;47.97;;;12.13;;
18752;SDS011;9505;50.882;5.350;2023-05-07T05:32:14;57.13;;;15.63;;
18752;SDS011;9505;50.882;5.350;2023-05-07T05:34:40;54.05;;;13.43;;
18752;SDS011;9505;50.882;5.350;2023-05-07T05:37:05;41.33;;;12.18;;
18752;SDS011;9505;50.882;5.350;2023-05-07T05:39:31;45.78;;;12.07;;
18752;SDS011;9505;50.882;5.350;2023-05-07T05:41:57;48.40;;;13.10;;
18752;SDS011;9505;50.882;5.350;2023-05-07T05:44:22;51.65;;;13.30;;
18752;SDS011;9505;50.882;5.350;2023-05-07T05:46:48;40.28;;;12.52;;
18752;SDS011;9505;50.882;5.350;2023-05-07T05:49:14;53.55;;;12.35;;
18752;SDS011;9505;50.882;5.350;2023-05-07T05:51:40;41.92;;;12.43;;
18752;SDS011;9505;50.882;5.350;2023-05-07T05:54:06;53.58;;;11.90;;
18752;SDS011;9505;50.882;5.350;2023-05-07T05:56:32;46.75;;;10.95;;
18752;SDS011;9505;50.882;5.350;2023-05-07T05:58:58;36.95;;;9.82;;
18752;SDS011;9505;50.882;5.350;2023-05-07T06:01:23;35.45;;;9.05;;
18752;SDS011;9505;50.882;5.350;2023-05-07T06:03:49;42.42;;;10.38;;
18752;SDS011;9505;50.882;5.350;2023-05-07T06:06:15;45.20;;;10.18;;
18752;SDS011;9505;50.882;5.350;2023-05-07T06:08:40;38.88;;;8.82;;
18752;SDS011;9505;50.882;5.350;2023-05-07T06:11:06;39.25;;;9.40;;
18752;SDS011;9505;50.882;5.350;2023-05-07T06:13:32;43.45;;;9.82;;
18752;SDS011;9505;50.882;5.350;2023-05-07T06:15:58;42.05;;;9.68;;
18752;SDS011;9505;50.882;5.350;2023-05-07T06:18:23;47.03;;;9.88;;
18752;SDS011;9505;50.882;5.350;2023-05-07T06:20:50;49.72;;;10.23;;
18752;SDS011;9505;50.882;5.350;2023-05-07T06:23:16;42.88;;;9.43;;
18752;SDS011;9505;50.882;5.350;2023-05-07T06:25:42;43.13;;;9.63;;
18752;SDS011;9505;50.882;5.350;2023-05-07T06:28:11;43.20;;;9.77;;
18752;SDS011;9505;50.882;5.350;2023-05-07T06:30:36;45.08;;;9.95;;
18752;SDS011;9505;50.882;5.350;2023-05-07T06:33:02;47.00;;;9.85;;
18752;SDS011;9505;50.882;5.350;2023-05-07T06:35:27;33.45;;;7.68;;
18752;SDS011;9505;50.882;5.350;2023-05-07T06:37:53;43.55;;;9.18;;
18752;SDS011;9505;50.882;5.350;2023-05-07T06:40:19;33.65;;;8.10;;
18752;SDS011;9505;50.882;5.350;2023-05-07T06:42:44;33.33;;;7.50;;
18752;SDS011;9505;50.882;5.350;2023-05-07T06:45:10;42.08;;;8.93;;
18752;SDS011;9505;50.882;5.350;2023-05-07T06:47:36;36.58;;;8.07;;
18752;SDS011;9505;50.882;5.350;2023-05-07T06:50:01;32.42;;;7.90;;
18752;SDS011;9505;50.882;5.350;2023-05-07T06:52:27;45.33;;;8.70;;
18752;SDS011;9505;50.882;5.350;2023-05-07T06:54:53;38.05;;;8.20;;
18752;SDS011;9505;50.882;5.350;2023-05-07T06:57:18;37.65;;;7.63;;
18752;SDS011;9505;50.882;5.350;2023-05-07T06:59:44;31.35;;;7.38;;
18752;SDS011;9505;50.882;5.350;2023-05-07T07:02:09;37.30;;;8.48;;
18752;SDS011;9505;50.882;5.350;2023-05-07T07:04:35;40.08;;;8.40;;
18752;SDS011;9505;50.882;5.350;2023-05-07T07:07:01;36.22;;;7.90;;
18752;SDS011;9505;50.882;5.350;2023-05-07T07:09:26;35.22;;;7.68;;
18752;SDS011;9505;50.882;5.350;2023-05-07T07:11:52;39.58;;;8.38;;
18752;SDS011;9505;50.882;5.350;2023-05-07T07:14:17;37.22;;;7.53;;
18752;SDS011;9505;50.882;5.350;2023-05-07T07:16:43;44.15;;;8.52;;
18752;SDS011;9505;50.882;5.350;2023-05-07T07:19:09;51.33;;;8.60;;
18752;SDS011;9505;50.882;5.350;2023-05-07T07:21:34;85.05;;;11.68;;
18752;SDS011;9505;50.882;5.350;2023-05-07T07:24:00;49.95;;;8.75;;
18752;SDS011;9505;50.882;5.350;2023-05-07T07:26:26;41.28;;;8.00;;
18752;SDS011;9505;50.882;5.350;2023-05-07T07:28:51;75.55;;;10.35;;
18752;SDS011;9505;50.882;5.350;2023-05-07T07:31:17;70.05;;;11.05;;
18752;SDS011;9505;50.882;5.350;2023-05-07T07:33:42;49.88;;;9.10;;
18752;SDS011;9505;50.882;5.350;2023-05-07T07:36:08;49.17;;;8.15;;
18752;SDS011;9505;50.882;5.350;2023-05-07T07:38:34;75.45;;;10.70;;
18752;SDS011;9505;50.882;5.350;2023-05-07T07:41:00;76.13;;;11.23;;
18752;SDS011;9505;50.882;5.350;2023-05-07T07:43:26;42.78;;;8.20;;
18752;SDS011;9505;50.882;5.350;2023-05-07T07:45:52;42.85;;;7.70;;
18752;SDS011;9505;50.882;5.350;2023-05-07T07:48:18;66.15;;;10.30;;
18752;SDS011;9505;50.882;5.350;2023-05-07T07:50:43;81.53;;;11.02;;
18752;SDS011;9505;50.882;5.350;2023-05-07T07:53:09;47.20;;;8.25;;
18752;SDS011;9505;50.882;5.350;2023-05-07T07:55:38;44.75;;;7.90;;
18752;SDS011;9505;50.882;5.350;2023-05-07T07:58:05;64.00;;;9.50;;
18752;SDS011;9505;50.882;5.350;2023-05-07T08:00:30;74.15;;;10.20;;
18752;SDS011;9505;50.882;5.350;2023-05-07T08:02:56;64.30;;;9.63;;
18752;SDS011;9505;50.882;5.350;2023-05-07T08:05:22;43.05;;;7.05;;
18752;SDS011;9505;50.882;5.350;2023-05-07T08:07:48;38.08;;;7.22;;
18752;SDS011;9505;50.882;5.350;2023-05-07T08:10:17;54.47;;;8.40;;
18752;SDS011;9505;50.882;5.350;2023-05-07T08:12:46;64.68;;;9.68;;
18752;SDS011;9505;50.882;5.350;2023-05-07T08:15:13;83.78;;;11.32;;
18752;SDS011;9505;50.882;5.350;2023-05-07T08:17:39;65.32;;;9.80;;
18752;SDS011;9505;50.882;5.350;2023-05-07T08:20:05;47.90;;;7.50;;
18752;SDS011;9505;50.882;5.350;2023-05-07T08:22:31;47.40;;;7.70;;
18752;SDS011;9505;50.882;5.350;2023-05-07T08:24:57;84.72;;;10.90;;
18752;SDS011;9505;50.882;5.350;2023-05-07T08:27:23;87.40;;;11.10;;
18752;SDS011;9505;50.882;5.350;2023-05-07T08:29:48;45.42;;;7.40;;
18752;SDS011;9505;50.882;5.350;2023-05-07T08:32:14;37.38;;;6.93;;
18752;SDS011;9505;50.882;5.350;2023-05-07T08:34:40;73.35;;;9.88;;
18752;SDS011;9505;50.882;5.350;2023-05-07T08:37:06;82.03;;;11.30;;
18752;SDS011;9505;50.882;5.350;2023-05-07T08:39:31;49.83;;;8.20;;
18752;SDS011;9505;50.882;5.350;2023-05-07T08:41:57;37.42;;;6.00;;
18752;SDS011;9505;50.882;5.350;2023-05-07T08:44:27;49.63;;;7.05;;
18752;SDS011;9505;50.882;5.350;2023-05-07T08:46:56;89.72;;;10.35;;
18752;SDS011;9505;50.882;5.350;2023-05-07T08:49:23;94.05;;;10.85;;
18752;SDS011;9505;50.882;5.350;2023-05-07T08:51:49;86.18;;;9.65;;
18752;SDS011;9505;50.882;5.350;2023-05-07T08:54:17;49.47;;;7.35;;
18752;SDS011;9505;50.882;5.350;2023-05-07T08:56:45;58.83;;;7.35;;
18752;SDS011;9505;50.882;5.350;2023-05-07T08:59:11;85.50;;;10.15;;
18752;SDS011;9505;50.882;5.350;2023-05-07T09:01:37;80.97;;;9.25;;
18752;SDS011;9505;50.882;5.350;2023-05-07T09:04:03;83.60;;;9.35;;
18752;SDS011;9505;50.882;5.350;2023-05-07T09:06:30;52.97;;;6.75;;
18752;SDS011;9505;50.882;5.350;2023-05-07T09:08:56;49.97;;;7.00;;
18752;SDS011;9505;50.882;5.350;2023-05-07T09:11:23;91.93;;;10.40;;
18752;SDS011;9505;50.882;5.350;2023-05-07T09:13:53;57.72;;;7.32;;
18752;SDS011;9505;50.882;5.350;2023-05-07T09:16:20;52.08;;;7.85;;
18752;SDS011;9505;50.882;5.350;2023-05-07T09:18:49;56.55;;;7.65;;
18752;SDS011;9505;50.882;5.350;2023-05-07T09:21:17;58.28;;;7.80;;
18752;SDS011;9505;50.882;5.350;2023-05-07T09:23:43;40.47;;;6.22;;
18752;SDS011;9505;50.882;5.350;2023-05-07T09:26:09;61.17;;;9.00;;
18752;SDS011;9505;50.882;5.350;2023-05-07T09:28:40;44.65;;;7.20;;
18752;SDS011;9505;50.882;5.350;2023-05-07T09:31:07;42.75;;;6.88;;
18752;SDS011;9505;50.882;5.350;2023-05-07T09:33:33;51.10;;;7.88;;
18752;SDS011;9505;50.882;5.350;2023-05-07T09:36:03;54.75;;;8.23;;
18752;SDS011;9505;50.882;5.350;2023-05-07T09:38:33;50.03;;;7.25;;
18752;SDS011;9505;50.882;5.350;2023-05-07T09:41:09;47.30;;;7.57;;
18752;SDS011;9505;50.882;5.350;2023-05-07T09:43:37;42.08;;;7.70;;
18752;SDS011;9505;50.882;5.350;2023-05-07T09:46:14;45.75;;;7.25;;
18752;SDS011;9505;50.882;5.350;2023-05-07T09:48:42;51.20;;;7.82;;
18752;SDS011;9505;50.882;5.350;2023-05-07T09:53:47;48.40;;;6.88;;
18752;SDS011;9505;50.882;5.350;2023-05-07T09:56:14;54.42;;;7.10;;
18752;SDS011;9505;50.882;5.350;2023-05-07T09:58:41;47.55;;;6.93;;
18752;SDS011;9505;50.882;5.350;2023-05-07T10:01:07;65.57;;;8.20;;
18752;SDS011;9505;50.882;5.350;2023-05-07T10:03:33;42.03;;;5.88;;
18752;SDS011;9505;50.882;5.350;2023-05-07T10:06:01;43.63;;;6.30;;
18752;SDS011;9505;50.882;5.350;2023-05-07T10:08:28;46.45;;;6.38;;
18752;SDS011;9505;50.882;5.350;2023-05-07T10:10:55;48.03;;;6.93;;
18752;SDS011;9505;50.882;5.350;2023-05-07T10:13:21;59.13;;;7.72;;
18752;SDS011;9505;50.882;5.350;2023-05-07T10:15:47;21.60;;;3.83;;
18752;SDS011;9505;50.882;5.350;2023-05-07T10:18:13;21.90;;;4.03;;
18752;SDS011;9505;50.882;5.350;2023-05-07T10:20:40;23.50;;;3.90;;
18752;SDS011;9505;50.882;5.350;2023-05-07T10:23:07;26.48;;;4.47;;
18752;SDS011;9505;50.882;5.350;2023-05-07T10:25:37;21.23;;;3.90;;
18752;SDS011;9505;50.882;5.350;2023-05-07T10:28:07;36.85;;;4.78;;
18752;SDS011;9505;50.882;5.350;2023-05-07T10:33:42;21.58;;;4.03;;
18752;SDS011;9505;50.882;5.350;2023-05-07T10:36:10;20.33;;;4.05;;
18752;SDS011;9505;50.882;5.350;2023-05-07T10:38:36;32.13;;;5.28;;
18752;SDS011;9505;50.882;5.350;2023-05-07T10:41:02;25.23;;;5.30;;
18752;SDS011;9505;50.882;5.350;2023-05-07T10:44:03;40.20;;;5.75;;
18752;SDS011;9505;50.882;5.350;2023-05-07T10:46:26;29.38;;;5.32;;
18752;SDS011;9505;50.882;5.350;2023-05-07T10:49:24;24.08;;;5.28;;
18752;SDS011;9505;50.882;5.350;2023-05-07T10:51:43;43.92;;;6.80;;
18752;SDS011;9505;50.882;5.350;2023-05-07T11:04:19;24.33;;;5.72;;
18752;SDS011;9505;50.882;5.350;2023-05-07T11:15:05;26.70;;;5.68;;
18752;SDS011;9505;50.882;5.350;2023-05-07T11:17:56;27.45;;;5.78;;
18752;SDS011;9505;50.882;5.350;2023-05-07T11:20:44;31.80;;;6.32;;
18752;SDS011;9505;50.882;5.350;2023-05-07T11:23:58;34.30;;;7.00;;
18752;SDS011;9505;50.882;5.350;2023-05-07T11:26:09;18.85;;;5.38;;
18752;SDS011;9505;50.882;5.350;2023-05-07T11:28:36;28.52;;;5.93;;
18752;SDS011;9505;50.882;5.350;2023-05-07T11:31:04;24.88;;;5.85;;
18752;SDS011;9505;50.882;5.350;2023-05-07T11:33:30;46.63;;;7.28;;
18752;SDS011;9505;50.882;5.350;2023-05-07T11:35:56;47.30;;;7.32;;
18752;SDS011;9505;50.882;5.350;2023-05-07T11:38:22;26.83;;;5.78;;
18752;SDS011;9505;50.882;5.350;2023-05-07T11:40:52;34.20;;;6.90;;
18752;SDS011;9505;50.882;5.350;2023-05-07T11:43:22;33.17;;;6.53;;
18752;SDS011;9505;50.882;5.350;2023-05-07T11:45:48;23.40;;;5.50;;
18752;SDS011;9505;50.882;5.350;2023-05-07T11:48:14;21.90;;;4.72;;
18752;SDS011;9505;50.882;5.350;2023-05-07T11:50:53;36.17;;;6.78;;
18752;SDS011;9505;50.882;5.350;2023-05-07T11:53:25;36.13;;;6.35;;
18752;SDS011;9505;50.882;5.350;2023-05-07T11:56:00;37.58;;;6.07;;
18752;SDS011;9505;50.882;5.350;2023-05-07T11:58:30;95.28;;;11.07;;
18752;SDS011;9505;50.882;5.350;2023-05-07T12:00:56;76.13;;;9.50;;
18752;SDS011;9505;50.882;5.350;2023-05-07T12:03:22;28.58;;;5.53;;
18752;SDS011;9505;50.882;5.350;2023-05-07T12:05:48;26.90;;;6.03;;
18752;SDS011;9505;50.882;5.350;2023-05-07T12:08:14;67.03;;;9.48;;
18752;SDS011;9505;50.882;5.350;2023-05-07T12:10:43;78.65;;;10.18;;
18752;SDS011;9505;50.882;5.350;2023-05-07T12:13:23;60.00;;;8.25;;
18752;SDS011;9505;50.882;5.350;2023-05-07T12:15:53;79.82;;;10.45;;
18752;SDS011;9505;50.882;5.350;2023-05-07T12:18:22;61.22;;;8.43;;
18752;SDS011;9505;50.882;5.350;2023-05-07T12:20:48;68.10;;;8.95;;
18752;SDS011;9505;50.882;5.350;2023-05-07T12:23:15;46.95;;;7.07;;
18752;SDS011;9505;50.882;5.350;2023-05-07T12:25:42;35.50;;;5.60;;
18752;SDS011;9505;50.882;5.350;2023-05-07T12:28:15;26.65;;;5.38;;
18752;SDS011;9505;50.882;5.350;2023-05-07T12:30:42;52.15;;;7.68;;
18752;SDS011;9505;50.882;5.350;2023-05-07T12:33:14;53.10;;;7.20;;
18752;SDS011;9505;50.882;5.350;2023-05-07T12:35:42;72.55;;;9.15;;
18752;SDS011;9505;50.882;5.350;2023-05-07T12:38:09;68.40;;;8.52;;
18752;SDS011;9505;50.882;5.350;2023-05-07T12:40:46;86.78;;;9.85;;
18752;SDS011;9505;50.882;5.350;2023-05-07T12:43:19;91.97;;;9.75;;
18752;SDS011;9505;50.882;5.350;2023-05-07T12:45:47;60.50;;;7.90;;
18752;SDS011;9505;50.882;5.350;2023-05-07T12:48:14;80.25;;;9.40;;
18752;SDS011;9505;50.882;5.350;2023-05-07T12:50:40;39.28;;;6.00;;
18752;SDS011;9505;50.882;5.350;2023-05-07T12:53:06;25.73;;;4.03;;
18752;SDS011;9505;50.882;5.350;2023-05-07T12:55:42;48.13;;;5.78;;
18752;SDS011;9505;50.882;5.350;2023-05-07T13:00:42;31.35;;;3.92;;
18752;SDS011;9505;50.882;5.350;2023-05-07T13:03:08;35.20;;;4.43;;
18752;SDS011;9505;50.882;5.350;2023-05-07T13:05:34;74.30;;;7.53;;
18752;SDS011;9505;50.882;5.350;2023-05-07T13:08:00;88.07;;;8.55;;
18752;SDS011;9505;50.882;5.350;2023-05-07T13:10:26;45.50;;;5.63;;
18752;SDS011;9505;50.882;5.350;2023-05-07T13:12:52;31.40;;;4.22;;
18752;SDS011;9505;50.882;5.350;2023-05-07T13:15:18;23.45;;;3.33;;
18752;SDS011;9505;50.882;5.350;2023-05-07T13:17:44;61.45;;;6.93;;
18752;SDS011;9505;50.882;5.350;2023-05-07T13:20:10;72.03;;;7.60;;
18752;SDS011;9505;50.882;5.350;2023-05-07T13:22:37;74.78;;;7.43;;
18752;SDS011;9505;50.882;5.350;2023-05-07T13:25:04;35.47;;;3.88;;
18752;SDS011;9505;50.882;5.350;2023-05-07T13:27:30;28.10;;;3.60;;
18752;SDS011;9505;50.882;5.350;2023-05-07T13:29:56;63.45;;;7.05;;
18752;SDS011;9505;50.882;5.350;2023-05-07T13:32:21;62.53;;;6.72;;
18752;SDS011;9505;50.882;5.350;2023-05-07T13:34:47;66.68;;;7.35;;
18752;SDS011;9505;50.882;5.350;2023-05-07T13:37:13;25.90;;;4.13;;
18752;SDS011;9505;50.882;5.350;2023-05-07T13:39:39;21.70;;;3.67;;
18752;SDS011;9505;50.882;5.350;2023-05-07T13:42:05;62.20;;;6.75;;
18752;SDS011;9505;50.882;5.350;2023-05-07T13:44:31;68.03;;;7.57;;
18752;SDS011;9505;50.882;5.350;2023-05-07T13:46:57;64.40;;;7.05;;
18752;SDS011;9505;50.882;5.350;2023-05-07T13:49:22;25.13;;;4.03;;
18752;SDS011;9505;50.882;5.350;2023-05-07T13:51:49;20.13;;;3.03;;
18752;SDS011;9505;50.882;5.350;2023-05-07T13:54:14;65.53;;;7.10;;
18752;SDS011;9505;50.882;5.350;2023-05-07T13:56:40;112.00;;;10.57;;
18752;SDS011;9505;50.882;5.350;2023-05-07T13:59:06;56.15;;;6.05;;
18752;SDS011;9505;50.882;5.350;2023-05-07T14:01:32;27.02;;;3.88;;
18752;SDS011;9505;50.882;5.350;2023-05-07T14:03:58;44.40;;;5.38;;
18752;SDS011;9505;50.882;5.350;2023-05-07T14:06:24;88.03;;;9.35;;
18752;SDS011;9505;50.882;5.350;2023-05-07T14:08:50;60.25;;;7.13;;
18752;SDS011;9505;50.882;5.350;2023-05-07T14:11:16;31.35;;;4.90;;
18752;SDS011;9505;50.882;5.350;2023-05-07T14:13:41;25.55;;;4.60;;
18752;SDS011;9505;50.882;5.350;2023-05-07T14:16:07;63.58;;;7.35;;
18752;SDS011;9505;50.882;5.350;2023-05-07T14:18:33;55.55;;;6.80;;
18752;SDS011;9505;50.882;5.350;2023-05-07T14:21:00;46.42;;;6.30;;
18752;SDS011;9505;50.882;5.350;2023-05-07T14:23:25;22.52;;;4.10;;
18752;SDS011;9505;50.882;5.350;2023-05-07T14:25:52;35.08;;;5.10;;
18752;SDS011;9505;50.882;5.350;2023-05-07T14:28:18;51.83;;;5.50;;
18752;SDS011;9505;50.882;5.350;2023-05-07T14:30:44;67.93;;;6.97;;
18752;SDS011;9505;50.882;5.350;2023-05-07T14:33:09;27.65;;;3.83;;
18752;SDS011;9505;50.882;5.350;2023-05-07T14:35:35;17.33;;;3.45;;
18752;SDS011;9505;50.882;5.350;2023-05-07T14:38:01;55.97;;;6.53;;
18752;SDS011;9505;50.882;5.350;2023-05-07T14:40:26;51.00;;;6.28;;
18752;SDS011;9505;50.882;5.350;2023-05-07T14:42:52;41.88;;;4.95;;
18752;SDS011;9505;50.882;5.350;2023-05-07T14:45:18;22.52;;;3.45;;
18752;SDS011;9505;50.882;5.350;2023-05-07T14:47:43;39.80;;;4.55;;
18752;SDS011;9505;50.882;5.350;2023-05-07T14:50:09;67.15;;;7.25;;
18752;SDS011;9505;50.882;5.350;2023-05-07T14:52:35;53.58;;;6.03;;
18752;SDS011;9505;50.882;5.350;2023-05-07T14:55:00;13.77;;;2.40;;
18752;SDS011;9505;50.882;5.350;2023-05-07T14:57:26;42.10;;;5.13;;
18752;SDS011;9505;50.882;5.350;2023-05-07T14:59:52;66.75;;;7.32;;
18752;SDS011;9505;50.882;5.350;2023-05-07T15:02:17;39.25;;;5.18;;
18752;SDS011;9505;50.882;5.350;2023-05-07T15:04:43;22.17;;;3.25;;